Time;durP1;ratioP1;P1;durP2;ratioP2;P2;SDS_P1;SDS_P2;PMS_P1;PMS_P2;Temp;Humidity;BMP_temperature;BMP_pressure;BME280_temperature;BME280_humidity;BME280_pressure;Samples;Min_cycle;Max_cycle;Signal;HPM_P1;HPM_P2
2023/11/11 00:00:21;;;;;;;17.17;3.63;;;;;;;;;;4924871;29;20070;-74
2023/11/11 00:02:51;;;;;;;10.45;3.13;;;;;;;;;;4923729;29;20554;-73
2023/11/11 00:05:25;;;;;;;11.55;3.55;;;;;;;;;;4923707;29;20499;-75
2023/11/11 00:07:55;;;;;;;8.65;3.38;;;;;;;;;;4923133;29;20043;-75
2023/11/11 00:10:26;;;;;;;15.32;4.00;;;;;;;;;;4924708;29;20047;-74
2023/11/11 00:12:56;;;;;;;9.85;3.10;;;;;;;;;;4924494;29;20055;-74
2023/11/11 00:15:27;;;;;;;14.85;3.88;;;;;;;;;;4925399;29;20384;-74
2023/11/11 00:17:58;;;;;;;10.40;3.75;;;;;;;;;;4924499;29;20059;-75
2023/11/11 00:20:29;;;;;;;11.50;3.80;;;;;;;;;;4923940;29;20880;-74
2023/11/11 00:23:05;;;;;;;12.57;4.50;;;;;;;;;;4923606;29;20048;-75
2023/11/11 00:25:36;;;;;;;10.75;3.50;;;;;;;;;;4924126;29;20040;-74
2023/11/11 00:28:06;;;;;;;9.75;3.40;;;;;;;;;;4923886;29;20044;-76
2023/11/11 00:30:38;;;;;;;10.38;3.60;;;;;;;;;;4922768;29;20055;-74
2023/11/11 00:33:10;;;;;;;12.10;3.60;;;;;;;;;;4900221;29;20055;-74
2023/11/11 00:35:42;;;;;;;12.30;3.67;;;;;;;;;;4895881;29;20048;-74
2023/11/11 00:38:13;;;;;;;12.27;3.78;;;;;;;;;;4900576;29;20044;-75
2023/11/11 00:40:44;;;;;;;15.50;3.92;;;;;;;;;;4897679;29;20382;-74
2023/11/11 00:43:13;;;;;;;13.95;3.45;;;;;;;;;;4895134;29;21374;-74
2023/11/11 00:45:44;;;;;;;12.55;3.65;;;;;;;;;;4895362;29;20696;-75
2023/11/11 00:48:14;;;;;;;9.13;3.45;;;;;;;;;;4900687;29;20504;-74
2023/11/11 00:50:44;;;;;;;8.23;3.30;;;;;;;;;;4906504;29;20059;-74
2023/11/11 00:53:14;;;;;;;11.10;3.85;;;;;;;;;;4898259;29;20057;-73
2023/11/11 00:55:45;;;;;;;9.65;3.53;;;;;;;;;;4888959;29;20051;-76
2023/11/11 00:58:16;;;;;;;8.20;3.20;;;;;;;;;;4889850;29;20053;-73
2023/11/11 01:00:47;;;;;;;10.40;3.50;;;;;;;;;;4889807;29;20057;-75
2023/11/11 01:03:16;;;;;;;12.68;3.90;;;;;;;;;;4890295;29;20053;-74
2023/11/11 01:05:48;;;;;;;14.18;3.63;;;;;;;;;;4889403;29;20079;-75
2023/11/11 01:08:18;;;;;;;13.07;4.07;;;;;;;;;;4890052;29;20045;-75
2023/11/11 01:10:48;;;;;;;10.30;3.95;;;;;;;;;;4890443;29;20056;-74
2023/11/11 01:13:19;;;;;;;10.70;3.83;;;;;;;;;;4889788;29;20056;-74
2023/11/11 01:15:52;;;;;;;14.55;4.03;;;;;;;;;;4890282;29;20057;-74
2023/11/11 01:18:31;;;;;;;8.50;3.70;;;;;;;;;;4888382;29;20060;-74
2023/11/11 01:21:05;;;;;;;7.43;3.35;;;;;;;;;;4890222;29;20441;-77
2023/11/11 01:23:35;;;;;;;9.60;3.75;;;;;;;;;;4888834;29;20512;-76
2023/11/11 01:26:06;;;;;;;9.90;3.85;;;;;;;;;;4890025;29;20405;-74
2023/11/11 01:28:49;;;;;;;12.68;4.05;;;;;;;;;;4889314;29;20068;-74
2023/11/11 01:31:20;;;;;;;11.05;3.72;;;;;;;;;;4889972;29;20516;-74
2023/11/11 01:33:51;;;;;;;10.43;4.30;;;;;;;;;;4889353;29;20052;-73
2023/11/11 01:36:21;;;;;;;10.02;3.58;;;;;;;;;;4888485;29;20060;-76
2023/11/11 01:38:51;;;;;;;12.35;3.60;;;;;;;;;;4889841;29;20597;-75
2023/11/11 01:41:21;;;;;;;9.10;3.47;;;;;;;;;;4887703;29;20049;-76
2023/11/11 01:43:51;;;;;;;8.95;3.60;;;;;;;;;;4887852;29;20064;-76
2023/11/11 01:46:22;;;;;;;10.77;4.07;;;;;;;;;;4889298;29;20056;-78
2023/11/11 01:48:55;;;;;;;13.88;3.53;;;;;;;;;;4889375;29;20048;-76
2023/11/11 01:51:27;;;;;;;9.13;3.58;;;;;;;;;;4889828;29;20051;-74
2023/11/11 01:54:02;;;;;;;13.50;4.45;;;;;;;;;;4889416;29;20076;-73
2023/11/11 01:56:32;;;;;;;;;;;;;;;;;;4889787;29;20389;-75
2023/11/11 01:59:06;;;;;;;15.23;5.03;;;;;;;;;;4888209;29;19928;-77
2023/11/11 02:01:38;;;;;;;15.82;5.00;;;;;;;;;;4887660;29;20052;-77
2023/11/11 02:04:08;;;;;;;16.15;5.55;;;;;;;;;;4888082;29;20055;-74
2023/11/11 02:06:39;;;;;;;13.77;5.32;;;;;;;;;;4889875;29;20056;-75
2023/11/11 02:09:10;;;;;;;16.35;6.18;;;;;;;;;;4890006;29;20045;-74
2023/11/11 02:11:43;;;;;;;16.17;5.53;;;;;;;;;;4888675;29;20060;-76
2023/11/11 02:14:14;;;;;;;14.25;5.28;;;;;;;;;;4887667;29;20528;-75
2023/11/11 02:16:44;;;;;;;14.65;4.40;;;;;;;;;;4889125;29;20056;-77
2023/11/11 02:19:14;;;;;;;9.70;4.03;;;;;;;;;;4888799;29;20222;-75
2023/11/11 02:21:47;;;;;;;11.85;3.83;;;;;;;;;;4887431;29;20076;-75
2023/11/11 02:24:19;;;;;;;9.32;4.03;;;;;;;;;;4889283;29;20052;-74
2023/11/11 02:26:50;;;;;;;9.52;4.15;;;;;;;;;;4889125;29;20075;-75
2023/11/11 02:29:21;;;;;;;12.90;4.35;;;;;;;;;;4888821;29;20409;-77
2023/11/11 02:31:52;;;;;;;13.55;4.60;;;;;;;;;;4888271;29;20064;-75
2023/11/11 02:34:23;;;;;;;17.63;6.10;;;;;;;;;;4888874;29;20057;-78
2023/11/11 02:36:54;;;;;;;12.80;5.07;;;;;;;;;;4888951;29;20519;-75
2023/11/11 02:39:31;;;;;;;11.80;4.82;;;;;;;;;;4889229;29;20065;-77
2023/11/11 02:42:01;;;;;;;13.52;4.63;;;;;;;;;;4888775;29;20040;-75
2023/11/11 02:44:32;;;;;;;13.20;4.80;;;;;;;;;;4888493;29;20397;-74
2023/11/11 02:47:01;;;;;;;9.98;4.80;;;;;;;;;;4872352;29;20052;-77
2023/11/11 02:49:33;;;;;;;16.15;5.80;;;;;;;;;;4889114;29;20508;-77
2023/11/11 02:52:04;;;;;;;12.80;5.15;;;;;;;;;;4888007;29;20052;-75
2023/11/11 02:54:34;;;;;;;13.80;4.97;;;;;;;;;;4888698;29;20496;-75
2023/11/11 02:57:04;;;;;;;9.75;4.80;;;;;;;;;;4887087;29;20115;-77
2023/11/11 02:59:39;;;;;;;14.73;5.90;;;;;;;;;;4888123;29;20063;-75
2023/11/11 03:02:13;;;;;;;16.95;6.13;;;;;;;;;;4886234;29;20086;-77
2023/11/11 03:04:44;;;;;;;18.73;6.75;;;;;;;;;;4888085;29;20059;-76
2023/11/11 03:07:15;;;;;;;12.90;6.38;;;;;;;;;;4887251;29;20074;-76
2023/11/11 03:09:46;;;;;;;13.80;7.05;;;;;;;;;;4886450;29;20060;-77
2023/11/11 03:12:17;;;;;;;12.05;6.03;;;;;;;;;;4886710;29;20048;-75
2023/11/11 03:14:47;;;;;;;13.18;5.13;;;;;;;;;;4886097;29;20052;-77
2023/11/11 03:17:17;;;;;;;12.38;5.53;;;;;;;;;;4886908;29;20055;-76
2023/11/11 03:19:47;;;;;;;22.60;9.88;;;;;;;;;;4887712;29;20055;-72
2023/11/11 03:22:20;;;;;;;24.40;9.88;;;;;;;;;;4887992;29;20071;-75
2023/11/11 03:24:50;;;;;;;24.67;8.65;;;;;;;;;;4886856;29;20064;-73
2023/11/11 03:27:21;;;;;;;24.52;8.85;;;;;;;;;;4887760;29;20520;-75
2023/11/11 03:29:51;;;;;;;23.08;9.43;;;;;;;;;;4888660;29;20509;-74
2023/11/11 03:32:22;;;;;;;20.30;8.38;;;;;;;;;;4888345;29;20048;-75
2023/11/11 03:34:52;;;;;;;19.00;7.60;;;;;;;;;;4888355;29;20051;-76
2023/11/11 03:37:22;;;;;;;22.42;7.93;;;;;;;;;;4888017;29;20052;-77
2023/11/11 03:39:53;;;;;;;12.88;6.70;;;;;;;;;;4887835;29;20048;-75
2023/11/11 03:42:24;;;;;;;10.98;5.80;;;;;;;;;;4887026;29;20416;-77
2023/11/11 03:44:54;;;;;;;9.98;4.95;;;;;;;;;;4885922;29;20052;-72
2023/11/11 03:47:24;;;;;;;9.73;4.82;;;;;;;;;;4886049;29;20161;-74
2023/11/11 03:49:54;;;;;;;8.55;4.80;;;;;;;;;;4887707;29;20044;-75
2023/11/11 03:52:25;;;;;;;15.88;6.63;;;;;;;;;;4887586;29;20057;-76
2023/11/11 03:54:56;;;;;;;14.20;6.95;;;;;;;;;;4886009;29;20053;-75
2023/11/11 03:57:26;;;;;;;11.20;5.55;;;;;;;;;;4887221;29;20523;-76
2023/11/11 03:59:57;;;;;;;15.40;6.43;;;;;;;;;;4887823;29;20045;-75
2023/11/11 04:02:27;;;;;;;15.20;5.60;;;;;;;;;;4886197;29;20065;-77
2023/11/11 04:04:58;;;;;;;15.70;6.50;;;;;;;;;;4887048;29;20067;-77
2023/11/11 04:07:32;;;;;;;16.35;7.00;;;;;;;;;;4887285;29;20055;-75
2023/11/11 04:10:03;;;;;;;11.38;4.85;;;;;;;;;;4885951;29;20056;-75
2023/11/11 04:12:34;;;;;;;8.35;3.50;;;;;;;;;;4886480;29;20049;-74
2023/11/11 04:15:06;;;;;;;6.53;3.05;;;;;;;;;;4885748;29;20064;-74
2023/11/11 04:17:42;;;;;;;6.15;3.20;;;;;;;;;;4887404;29;20853;-75
2023/11/11 04:20:13;;;;;;;8.02;3.50;;;;;;;;;;4887121;29;20416;-74
2023/11/11 04:22:44;;;;;;;8.45;3.13;;;;;;;;;;4887200;29;20055;-75
2023/11/11 04:25:14;;;;;;;14.18;4.63;;;;;;;;;;4889739;29;20052;-76
2023/11/11 04:27:47;;;;;;;9.27;3.58;;;;;;;;;;4889770;29;20059;-75
2023/11/11 04:30:18;;;;;;;9.90;3.42;;;;;;;;;;4890852;29;20056;-74
2023/11/11 04:32:48;;;;;;;8.52;2.75;;;;;;;;;;4890438;29;20044;-73
2023/11/11 04:35:21;;;;;;;8.65;2.22;;;;;;;;;;4890706;29;20067;-74
2023/11/11 04:37:52;;;;;;;5.80;2.35;;;;;;;;;;4891946;29;20052;-76
2023/11/11 04:40:24;;;;;;;7.32;2.70;;;;;;;;;;4890617;29;20523;-77
2023/11/11 04:42:54;;;;;;;6.15;2.83;;;;;;;;;;4891014;29;20055;-77
2023/11/11 04:45:24;;;;;;;9.10;2.80;;;;;;;;;;4891439;29;20071;-76
2023/11/11 04:47:55;;;;;;;7.55;2.72;;;;;;;;;;4890479;29;20075;-74
2023/11/11 04:50:27;;;;;;;8.43;2.38;;;;;;;;;;4873897;29;20432;-76
2023/11/11 04:52:57;;;;;;;6.82;2.17;;;;;;;;;;4890429;29;20526;-75
2023/11/11 04:55:27;;;;;;;7.75;2.95;;;;;;;;;;4890830;29;20060;-76
2023/11/11 04:57:58;;;;;;;6.68;2.47;;;;;;;;;;4890092;29;20063;-75
2023/11/11 05:00:29;;;;;;;7.43;2.55;;;;;;;;;;4890050;29;20060;-74
2023/11/11 05:03:01;;;;;;;5.50;2.60;;;;;;;;;;4890536;29;20064;-76
2023/11/11 05:05:31;;;;;;;5.40;2.63;;;;;;;;;;4889979;29;20060;-76
2023/11/11 05:08:04;;;;;;;8.38;2.88;;;;;;;;;;4890183;29;20048;-77
2023/11/11 05:10:35;;;;;;;7.45;2.83;;;;;;;;;;4888970;29;20064;-78
2023/11/11 05:13:11;;;;;;;8.18;2.75;;;;;;;;;;4888573;29;20056;-75
2023/11/11 05:15:45;;;;;;;6.47;2.45;;;;;;;;;;4890422;29;20056;-74
2023/11/11 05:18:15;;;;;;;4.32;2.67;;;;;;;;;;4889862;29;20044;-75
2023/11/11 05:20:46;;;;;;;7.22;2.75;;;;;;;;;;4890108;29;20060;-78
2023/11/11 05:23:17;;;;;;;5.80;3.00;;;;;;;;;;4889696;29;20052;-76
2023/11/11 05:25:47;;;;;;;7.30;3.13;;;;;;;;;;4889332;29;20048;-76
2023/11/11 05:28:17;;;;;;;5.97;3.28;;;;;;;;;;4889722;29;20516;-76
2023/11/11 05:30:47;;;;;;;7.28;2.90;;;;;;;;;;4890441;29;20732;-74
2023/11/11 05:33:18;;;;;;;5.13;3.00;;;;;;;;;;4890280;29;20051;-76
2023/11/11 05:35:49;;;;;;;7.53;3.22;;;;;;;;;;4889054;29;20528;-73
2023/11/11 05:38:19;;;;;;;7.18;3.25;;;;;;;;;;4889622;29;20768;-75
2023/11/11 05:40:50;;;;;;;7.82;3.53;;;;;;;;;;4889658;29;21156;-74
2023/11/11 05:43:20;;;;;;;6.05;3.47;;;;;;;;;;4890235;29;20052;-78
2023/11/11 05:45:51;;;;;;;9.00;3.42;;;;;;;;;;4889582;29;20048;-74
2023/11/11 05:48:22;;;;;;;7.03;3.38;;;;;;;;;;4888021;29;20061;-75
2023/11/11 05:50:52;;;;;;;7.60;3.22;;;;;;;;;;4889438;29;20059;-76
2023/11/11 05:53:22;;;;;;;8.32;3.17;;;;;;;;;;4889462;29;20520;-76
2023/11/11 05:55:52;;;;;;;6.72;3.22;;;;;;;;;;4889119;29;20509;-78
2023/11/11 05:58:23;;;;;;;5.50;2.83;;;;;;;;;;4889137;29;20048;-75
2023/11/11 06:00:53;;;;;;;6.20;2.97;;;;;;;;;;4888783;29;20064;-75
2023/11/11 06:03:25;;;;;;;5.53;2.78;;;;;;;;;;4890303;29;20060;-77
2023/11/11 06:05:56;;;;;;;8.00;3.40;;;;;;;;;;4889182;29;20049;-76
2023/11/11 06:08:26;;;;;;;7.78;3.33;;;;;;;;;;4888725;29;20076;-75
2023/11/11 06:10:56;;;;;;;7.80;3.15;;;;;;;;;;4889316;29;20060;-76
2023/11/11 06:13:26;;;;;;;6.38;3.03;;;;;;;;;;4888415;29;20056;-74
2023/11/11 06:15:56;;;;;;;6.28;3.25;;;;;;;;;;4888862;29;20056;-74
2023/11/11 06:18:26;;;;;;;10.95;3.13;;;;;;;;;;4887687;29;20057;-76
2023/11/11 06:20:57;;;;;;;10.40;3.15;;;;;;;;;;4888303;29;20056;-76
2023/11/11 06:23:27;;;;;;;5.68;3.25;;;;;;;;;;4888708;29;20044;-77
2023/11/11 06:26:01;;;;;;;6.35;3.10;;;;;;;;;;4888828;29;20075;-77
2023/11/11 06:28:33;;;;;;;5.75;3.33;;;;;;;;;;4888644;29;20053;-73
2023/11/11 06:31:03;;;;;;;8.13;3.38;;;;;;;;;;4889357;29;20056;-76
2023/11/11 06:33:33;;;;;;;8.55;3.95;;;;;;;;;;4888868;29;20427;-75
2023/11/11 06:36:07;;;;;;;12.25;4.15;;;;;;;;;;4889112;29;20056;-74
2023/11/11 06:38:40;;;;;;;10.05;4.13;;;;;;;;;;4888470;29;20048;-77
2023/11/11 06:41:11;;;;;;;8.02;3.25;;;;;;;;;;4888340;29;20063;-77
2023/11/11 06:43:42;;;;;;;6.20;3.08;;;;;;;;;;4888927;29;20052;-75
2023/11/11 06:46:13;;;;;;;7.75;3.22;;;;;;;;;;4888670;29;20055;-74
2023/11/11 06:48:45;;;;;;;6.65;3.40;;;;;;;;;;4887425;29;20063;-77
2023/11/11 06:51:16;;;;;;;7.53;3.30;;;;;;;;;;4888440;29;20052;-75
2023/11/11 06:53:46;;;;;;;7.65;3.33;;;;;;;;;;4888564;29;20048;-75
2023/11/11 06:56:16;;;;;;;7.00;3.47;;;;;;;;;;4888227;29;20447;-77
2023/11/11 06:58:46;;;;;;;8.02;2.83;;;;;;;;;;4888288;29;20129;-74
2023/11/11 07:01:22;;;;;;;7.25;3.20;;;;;;;;;;4887911;29;20053;-75
2023/11/11 07:03:54;;;;;;;6.47;3.30;;;;;;;;;;4888653;29;20075;-77
2023/11/11 07:06:27;;;;;;;6.18;3.17;;;;;;;;;;4888519;29;20056;-76
2023/11/11 07:08:57;;;;;;;4.88;3.03;;;;;;;;;;4888388;29;20053;-77
2023/11/11 07:11:28;;;;;;;6.05;3.05;;;;;;;;;;4888258;29;20056;-75
2023/11/11 07:13:59;;;;;;;7.00;3.38;;;;;;;;;;4887792;29;20052;-75
2023/11/11 07:16:32;;;;;;;9.65;3.33;;;;;;;;;;4888227;29;20048;-78
2023/11/11 07:19:03;;;;;;;9.10;3.50;;;;;;;;;;4887771;29;20048;-76
2023/11/11 07:21:34;;;;;;;8.27;3.45;;;;;;;;;;4887864;29;20052;-74
2023/11/11 07:24:06;;;;;;;7.05;3.42;;;;;;;;;;4887920;29;20052;-76
2023/11/11 07:26:36;;;;;;;7.55;3.35;;;;;;;;;;4886491;29;20512;-75
2023/11/11 07:29:06;;;;;;;11.75;3.55;;;;;;;;;;4887614;29;20052;-77
2023/11/11 07:31:38;;;;;;;9.48;3.35;;;;;;;;;;4887626;29;20140;-74
2023/11/11 07:34:11;;;;;;;6.68;3.42;;;;;;;;;;4887386;29;20053;-76
2023/11/11 07:36:42;;;;;;;8.02;3.30;;;;;;;;;;4887593;29;20044;-77
2023/11/11 07:39:14;;;;;;;10.60;3.70;;;;;;;;;;4887921;29;20584;-74
2023/11/11 07:41:46;;;;;;;7.18;3.33;;;;;;;;;;4888071;29;20060;-76
2023/11/11 07:44:17;;;;;;;7.13;3.47;;;;;;;;;;4887899;29;20052;-77
2023/11/11 07:46:47;;;;;;;8.50;3.95;;;;;;;;;;4887127;29;20148;-74
2023/11/11 07:49:17;;;;;;;9.43;3.88;;;;;;;;;;4887584;29;20059;-76
2023/11/11 07:51:48;;;;;;;9.82;3.90;;;;;;;;;;4886111;29;20065;-75
2023/11/11 07:54:19;;;;;;;7.53;3.50;;;;;;;;;;4887273;29;20060;-76
2023/11/11 07:56:51;;;;;;;11.85;4.07;;;;;;;;;;4885839;29;20067;-76
2023/11/11 07:59:22;;;;;;;8.38;4.03;;;;;;;;;;4887375;29;20049;-76
2023/11/11 08:01:53;;;;;;;5.35;3.42;;;;;;;;;;4885461;29;20052;-76
2023/11/11 08:04:24;;;;;;;7.28;3.45;;;;;;;;;;4887386;29;20416;-76
2023/11/11 08:06:54;;;;;;;7.47;3.13;;;;;;;;;;4887403;29;20052;-75
2023/11/11 08:09:24;;;;;;;8.48;3.42;;;;;;;;;;4887685;29;20049;-74
2023/11/11 08:11:54;;;;;;;6.07;3.92;;;;;;;;;;4887402;29;20049;-75
2023/11/11 08:14:25;;;;;;;7.07;3.30;;;;;;;;;;4886668;29;20536;-75
2023/11/11 08:16:54;;;;;;;6.93;4.28;;;;;;;;;;4887645;29;20409;-78
2023/11/11 08:19:25;;;;;;;7.18;3.85;;;;;;;;;;4887074;29;20053;-74
2023/11/11 08:21:56;;;;;;;5.50;3.08;;;;;;;;;;4887138;29;20484;-77
2023/11/11 08:24:27;;;;;;;6.47;3.60;;;;;;;;;;4887129;29;20504;-74
2023/11/11 08:26:58;;;;;;;7.03;3.67;;;;;;;;;;4887224;29;20630;-75
2023/11/11 08:29:27;;;;;;;7.95;3.95;;;;;;;;;;4887181;29;20053;-75
2023/11/11 08:31:58;;;;;;;7.32;3.50;;;;;;;;;;4886292;29;20064;-75
2023/11/11 08:34:31;;;;;;;7.22;3.83;;;;;;;;;;4886831;29;20632;-77
2023/11/11 08:37:04;;;;;;;8.02;4.20;;;;;;;;;;4886344;29;20086;-73
2023/11/11 08:39:35;;;;;;;6.22;3.90;;;;;;;;;;4885154;29;20067;-75
2023/11/11 08:42:06;;;;;;;6.50;3.28;;;;;;;;;;4887043;29;20044;-77
2023/11/11 08:44:35;;;;;;;9.75;4.55;;;;;;;;;;4886143;29;20048;-79
2023/11/11 08:47:06;;;;;;;6.40;3.65;;;;;;;;;;4887173;29;20053;-76
2023/11/11 08:49:38;;;;;;;8.57;4.20;;;;;;;;;;4886858;29;20452;-77
2023/11/11 08:52:09;;;;;;;10.82;4.38;;;;;;;;;;4887224;29;20520;-75
2023/11/11 08:54:40;;;;;;;6.60;3.95;;;;;;;;;;4887044;29;20052;-76
2023/11/11 08:57:11;;;;;;;10.77;4.60;;;;;;;;;;4885303;29;20044;-75
2023/11/11 08:59:41;;;;;;;13.52;4.57;;;;;;;;;;4886683;29;20049;-77
2023/11/11 09:02:12;;;;;;;8.82;4.60;;;;;;;;;;4887277;29;20064;-75
2023/11/11 09:04:43;;;;;;;11.35;4.35;;;;;;;;;;4886512;29;20052;-76
2023/11/11 09:07:14;;;;;;;10.07;4.30;;;;;;;;;;4886719;29;20053;-74
2023/11/11 09:09:44;;;;;;;8.25;4.25;;;;;;;;;;4886001;29;20057;-77
2023/11/11 09:12:14;;;;;;;11.30;4.57;;;;;;;;;;4888617;29;20072;-75
2023/11/11 09:14:45;;;;;;;10.73;4.35;;;;;;;;;;4890396;29;20048;-76
2023/11/11 09:17:15;;;;;;;9.98;4.88;;;;;;;;;;4890402;29;20056;-75
2023/11/11 09:19:46;;;;;;;8.82;4.72;;;;;;;;;;4890267;29;20048;-76
2023/11/11 09:22:17;;;;;;;9.63;4.43;;;;;;;;;;4890357;29;20443;-74
2023/11/11 09:24:47;;;;;;;14.10;4.35;;;;;;;;;;4890186;29;20048;-74
2023/11/11 09:27:17;;;;;;;13.82;4.07;;;;;;;;;;4889732;29;20413;-76
2023/11/11 09:29:48;;;;;;;10.13;4.05;;;;;;;;;;4889758;29;20063;-75
2023/11/11 09:32:19;;;;;;;12.15;4.18;;;;;;;;;;4890113;29;20062;-74
2023/11/11 09:34:49;;;;;;;8.30;4.50;;;;;;;;;;4889879;29;20036;-72
2023/11/11 09:37:20;;;;;;;6.57;3.80;;;;;;;;;;4889581;29;20516;-74
2023/11/11 09:39:50;;;;;;;9.45;3.78;;;;;;;;;;4888741;29;20540;-77
2023/11/11 09:42:21;;;;;;;9.68;4.05;;;;;;;;;;4889406;29;20049;-78
2023/11/11 09:44:52;;;;;;;12.13;4.30;;;;;;;;;;4889275;29;20556;-76
2023/11/11 09:47:28;;;;;;;14.05;4.38;;;;;;;;;;4889811;29;20118;-77
2023/11/11 09:50:03;;;;;;;11.75;4.13;;;;;;;;;;4889574;29;20070;-76
2023/11/11 09:52:36;;;;;;;12.25;4.53;;;;;;;;;;4889469;29;20618;-77
2023/11/11 09:55:08;;;;;;;10.93;3.85;;;;;;;;;;4889840;29;20048;-75
2023/11/11 09:57:39;;;;;;;8.85;4.90;;;;;;;;;;4889758;29;20496;-77
2023/11/11 10:00:11;;;;;;;8.93;4.32;;;;;;;;;;4889404;29;20049;-76
2023/11/11 10:02:42;;;;;;;12.25;4.22;;;;;;;;;;4889146;29;20060;-74
2023/11/11 10:05:12;;;;;;;9.90;4.45;;;;;;;;;;4889326;29;20055;-78
2023/11/11 10:07:46;;;;;;;39.00;4.80;;;;;;;;;;4890425;29;20051;-77
2023/11/11 10:10:17;;;;;;;8.80;4.20;;;;;;;;;;4889164;29;20393;-76
2023/11/11 10:12:48;;;;;;;7.65;3.92;;;;;;;;;;4889381;29;20118;-78
2023/11/11 10:15:18;;;;;;;9.18;3.75;;;;;;;;;;4889130;29;20041;-74
2023/11/11 10:17:49;;;;;;;6.25;3.75;;;;;;;;;;4888803;29;20053;-76
2023/11/11 10:20:19;;;;;;;11.82;3.95;;;;;;;;;;4892241;29;20538;-77
2023/11/11 10:22:51;;;;;;;12.15;4.25;;;;;;;;;;4926554;29;20541;-75
2023/11/11 10:25:22;;;;;;;10.35;4.25;;;;;;;;;;4926053;29;20056;-79
2023/11/11 10:27:54;;;;;;;8.20;3.33;;;;;;;;;;4926822;29;20054;-76
2023/11/11 10:30:26;;;;;;;10.23;4.05;;;;;;;;;;4927078;29;20066;-76
2023/11/11 10:33:01;;;;;;;8.15;3.60;;;;;;;;;;4926972;29;20063;-76
2023/11/11 10:35:32;;;;;;;4.80;2.95;;;;;;;;;;4926811;29;20056;-75
2023/11/11 10:38:04;;;;;;;5.75;3.22;;;;;;;;;;4925976;29;20067;-77
2023/11/11 10:40:34;;;;;;;5.75;3.53;;;;;;;;;;4925995;29;20055;-77
2023/11/11 10:43:06;;;;;;;6.63;3.33;;;;;;;;;;4926055;29;20051;-76
2023/11/11 10:45:37;;;;;;;7.75;4.18;;;;;;;;;;4926601;29;20423;-77
2023/11/11 10:48:08;;;;;;;4.90;3.13;;;;;;;;;;4926142;29;20043;-77
2023/11/11 10:50:40;;;;;;;17.88;3.50;;;;;;;;;;4926137;29;20054;-77
2023/11/11 10:53:16;;;;;;;3.95;2.78;;;;;;;;;;4925737;29;20672;-77
2023/11/11 10:55:49;;;;;;;7.97;3.22;;;;;;;;;;4924722;29;20055;-77
2023/11/11 10:58:20;;;;;;;10.10;2.58;;;;;;;;;;4926147;29;20051;-76
2023/11/11 11:00:50;;;;;;;4.85;2.65;;;;;;;;;;4925696;29;20503;-80
2023/11/11 11:03:23;;;;;;;6.97;3.22;;;;;;;;;;4925378;29;20519;-78
2023/11/11 11:06:11;;;;;;;6.38;2.72;;;;;;;;;;4924677;29;20051;-75
2023/11/11 11:09:21;;;;;;;8.38;3.03;;;;;;;;;;4925032;29;20036;-75
2023/11/11 11:12:15;;;;;;;7.20;2.85;;;;;;;;;;4923370;29;20074;-74
2023/11/11 11:14:55;;;;;;;6.30;2.60;;;;;;;;;;4923894;29;20082;-79
2023/11/11 11:17:35;;;;;;;6.45;2.80;;;;;;;;;;4925892;29;20055;-76
2023/11/11 11:20:09;;;;;;;8.40;2.67;;;;;;;;;;4926281;29;20052;-78
2023/11/11 11:22:44;;;;;;;8.15;3.17;;;;;;;;;;4925529;29;20062;-77
2023/11/11 11:25:45;;;;;;;8.65;2.40;;;;;;;;;;4925651;29;20063;-76
2023/11/11 11:28:22;;;;;;;3.53;2.28;;;;;;;;;;4925985;29;20071;-76
2023/11/11 11:31:04;;;;;;;3.47;2.53;;;;;;;;;;4925939;29;20055;-74
2023/11/11 11:33:41;;;;;;;5.45;2.42;;;;;;;;;;4925686;29;20504;-72
2023/11/11 11:36:14;;;;;;;4.00;2.42;;;;;;;;;;4925088;29;20062;-75
2023/11/11 11:38:48;;;;;;;6.65;2.90;;;;;;;;;;4925506;29;20078;-77
2023/11/11 11:41:26;;;;;;;5.47;3.45;;;;;;;;;;4925204;29;20056;-75
2023/11/11 11:43:57;;;;;;;9.25;2.58;;;;;;;;;;4925841;29;20051;-76
2023/11/11 11:46:27;;;;;;;4.13;2.50;;;;;;;;;;4925524;29;20055;-77
2023/11/11 11:48:58;;;;;;;5.45;2.47;;;;;;;;;;4925333;29;20035;-77
2023/11/11 11:51:28;;;;;;;5.50;2.70;;;;;;;;;;4923780;29;20044;-76
2023/11/11 11:53:58;;;;;;;7.68;2.70;;;;;;;;;;4925216;29;20403;-73
2023/11/11 11:56:34;;;;;;;6.00;2.30;;;;;;;;;;4925677;29;20051;-77
2023/11/11 11:59:11;;;;;;;5.20;2.55;;;;;;;;;;4924677;29;20058;-76
2023/11/11 12:01:42;;;;;;;5.82;2.38;;;;;;;;;;4924991;29;20056;-75
2023/11/11 12:04:12;;;;;;;8.95;2.72;;;;;;;;;;4924875;29;20052;-76
2023/11/11 12:06:45;;;;;;;6.28;2.30;;;;;;;;;;4925021;29;20083;-74
2023/11/11 12:09:17;;;;;;;4.35;2.42;;;;;;;;;;4924779;29;20050;-73
2023/11/11 12:11:47;;;;;;;5.25;2.20;;;;;;;;;;4923661;29;20059;-76
2023/11/11 12:14:17;;;;;;;4.35;2.70;;;;;;;;;;4925171;29;20052;-75
2023/11/11 12:16:49;;;;;;;6.10;2.80;;;;;;;;;;4924964;29;20058;-75
2023/11/11 12:19:22;;;;;;;7.78;2.90;;;;;;;;;;4925031;29;20392;-77
2023/11/11 12:21:54;;;;;;;4.63;2.70;;;;;;;;;;4925091;29;20048;-76
2023/11/11 12:24:29;;;;;;;5.88;3.03;;;;;;;;;;4925014;29;20052;-74
2023/11/11 12:27:00;;;;;;;5.50;2.35;;;;;;;;;;4923570;29;20052;-79
2023/11/11 12:29:43;;;;;;;5.97;3.03;;;;;;;;;;4924897;29;20051;-77
2023/11/11 12:32:14;;;;;;;5.53;2.40;;;;;;;;;;4924474;29;20419;-77
2023/11/11 12:34:50;;;;;;;5.72;2.70;;;;;;;;;;4924848;29;20048;-78
2023/11/11 12:37:21;;;;;;;6.68;3.08;;;;;;;;;;4925622;29;20044;-77
2023/11/11 12:39:53;;;;;;;5.57;2.85;;;;;;;;;;4925117;29;20054;-75
2023/11/11 12:42:27;;;;;;;4.32;2.15;;;;;;;;;;4925289;29;20047;-77
2023/11/11 12:44:58;;;;;;;5.00;2.78;;;;;;;;;;4924105;29;20071;-78
2023/11/11 12:47:28;;;;;;;4.07;2.33;;;;;;;;;;4926535;29;20054;-77
2023/11/11 12:49:59;;;;;;;15.07;5.55;;;;;;;;;;4928337;29;20094;-76
2023/11/11 12:52:29;;;;;;;9.07;2.67;;;;;;;;;;4928102;29;20546;-77
2023/11/11 12:55:02;;;;;;;10.80;4.43;;;;;;;;;;4928107;29;20047;-74
2023/11/11 12:57:34;;;;;;;5.90;2.90;;;;;;;;;;4927962;29;20063;-74
2023/11/11 13:00:07;;;;;;;3.38;2.60;;;;;;;;;;4927743;29;20047;-76
2023/11/11 13:02:41;;;;;;;7.45;3.63;;;;;;;;;;4927593;29;20060;-77
2023/11/11 13:05:11;;;;;;;6.35;3.08;;;;;;;;;;4927912;29;20043;-80
2023/11/11 13:07:43;;;;;;;6.13;3.65;;;;;;;;;;4927294;29;20415;-77
2023/11/11 13:10:14;;;;;;;4.40;2.60;;;;;;;;;;4927802;29;20542;-76
2023/11/11 13:12:48;;;;;;;4.45;2.60;;;;;;;;;;4928440;29;20055;-77
2023/11/11 13:15:19;;;;;;;2.90;2.60;;;;;;;;;;4928065;29;20056;-74
2023/11/11 13:17:49;;;;;;;10.90;4.30;;;;;;;;;;4927202;29;20036;-76
2023/11/11 13:20:20;;;;;;;4.22;2.45;;;;;;;;;;4927265;29;20061;-77
2023/11/11 13:22:51;;;;;;;8.40;2.55;;;;;;;;;;4927687;29;20071;-73
2023/11/11 13:25:22;;;;;;;7.40;3.05;;;;;;;;;;4927374;29;20514;-75
2023/11/11 13:27:54;;;;;;;4.28;2.28;;;;;;;;;;4925384;29;20062;-74
2023/11/11 13:30:24;;;;;;;6.20;2.40;;;;;;;;;;4927772;29;20051;-75
2023/11/11 13:37:33;;;;;;;5.63;2.35;;;;;;;;;;5060625;28;20466;-76
2023/11/11 13:40:19;;;;;;;4.97;2.28;;;;;;;;;;5059734;28;20048;-76
2023/11/11 13:42:50;;;;;;;4.10;2.55;;;;;;;;;;5059152;28;20059;-75
2023/11/11 13:45:23;;;;;;;6.07;2.65;;;;;;;;;;5058990;28;20504;-76
2023/11/11 13:47:55;;;;;;;4.78;2.75;;;;;;;;;;5058926;28;20419;-75
2023/11/11 13:50:26;;;;;;;5.20;2.70;;;;;;;;;;5058966;28;20048;-75
2023/11/11 13:53:01;;;;;;;4.28;2.47;;;;;;;;;;5059029;28;20503;-76
2023/11/11 13:55:32;;;;;;;5.00;2.55;;;;;;;;;;5059643;28;20048;-76
2023/11/11 13:58:03;;;;;;;5.07;2.78;;;;;;;;;;5058653;28;20067;-76
2023/11/11 14:00:37;;;;;;;5.30;2.33;;;;;;;;;;5091342;28;20410;-78
2023/11/11 14:03:08;;;;;;;10.45;4.53;;;;;;;;;;5058706;28;20048;-76
2023/11/11 14:05:42;;;;;;;14.15;4.57;;;;;;;;;;5057834;28;20053;-77
2023/11/11 14:08:13;;;;;;;21.02;5.57;;;;;;;;;;5058670;28;20041;-77
2023/11/11 14:10:44;;;;;;;11.23;4.43;;;;;;;;;;5058660;28;21072;-75
2023/11/11 14:13:15;;;;;;;8.48;4.80;;;;;;;;;;5058849;28;20056;-75
2023/11/11 14:15:45;;;;;;;10.02;4.85;;;;;;;;;;5059449;28;20051;-80
2023/11/11 14:18:18;;;;;;;11.23;4.68;;;;;;;;;;5059264;28;20053;-74
2023/11/11 14:20:57;;;;;;;10.57;5.13;;;;;;;;;;5059136;28;20048;-75
2023/11/11 14:23:28;;;;;;;9.48;5.25;;;;;;;;;;5058804;28;20056;-75
2023/11/11 14:25:59;;;;;;;14.88;5.30;;;;;;;;;;5059655;28;20052;-76
2023/11/11 14:28:31;;;;;;;13.02;5.00;;;;;;;;;;5059286;28;20056;-76
2023/11/11 14:31:02;;;;;;;8.05;4.82;;;;;;;;;;5058467;28;20570;-75
2023/11/11 14:33:32;;;;;;;13.77;5.05;;;;;;;;;;5057989;28;20044;-75
2023/11/11 14:36:04;;;;;;;9.90;5.03;;;;;;;;;;5058315;28;20067;-77
2023/11/11 14:38:35;;;;;;;11.43;5.00;;;;;;;;;;5058445;28;20616;-77
2023/11/11 14:41:06;;;;;;;20.42;5.22;;;;;;;;;;5059045;28;20107;-78
2023/11/11 14:43:36;;;;;;;12.10;4.90;;;;;;;;;;5058232;28;20526;-78
2023/11/11 14:46:06;;;;;;;8.43;4.68;;;;;;;;;;5058208;28;20400;-78
2023/11/11 14:48:37;;;;;;;13.60;5.53;;;;;;;;;;5046263;28;20045;-77
2023/11/11 14:51:08;;;;;;;12.20;5.22;;;;;;;;;;5045612;28;20053;-77
2023/11/11 14:53:44;;;;;;;13.27;5.47;;;;;;;;;;5044805;28;20065;-75
2023/11/11 14:56:14;;;;;;;15.50;5.45;;;;;;;;;;5044505;28;20052;-76
2023/11/11 14:58:44;;;;;;;8.43;5.25;;;;;;;;;;5045415;28;20057;-75
2023/11/11 15:01:15;;;;;;;13.25;5.15;;;;;;;;;;5043876;28;20052;-74
2023/11/11 15:03:48;;;;;;;11.40;5.30;;;;;;;;;;5044541;28;20056;-74
2023/11/11 15:06:21;;;;;;;11.73;4.53;;;;;;;;;;5044461;28;20053;-74
2023/11/11 15:08:55;;;;;;;15.95;5.50;;;;;;;;;;5044818;28;20045;-75